Time;durP1;ratioP1;P1;durP2;ratioP2;P2;SDS_P1;SDS_P2;PMS_P1;PMS_P2;Temp;Humidity;BMP_temperature;BMP_pressure;BME280_temperature;BME280_humidity;BME280_pressure;Samples;Min_cycle;Max_cycle;Signal;HPM_P1;HPM_P2
2022/06/20 00:01:23;;;;;;;9.45;4.68;;;;;;;;;;4970717;28;20506;-74
2022/06/20 00:03:50;;;;;;;13.52;4.60;;;;;;;;;;4970685;28;20101;-75
2022/06/20 00:06:19;;;;;;;4.63;3.88;;;;;;;;;;4969086;28;20038;-73
2022/06/20 00:08:46;;;;;;;9.10;4.10;;;;;;;;;;4969471;28;20029;-72
2022/06/20 00:11:16;;;;;;;9.30;4.13;;;;;;;;;;4970558;28;20380;-72
2022/06/20 00:13:44;;;;;;;8.30;3.92;;;;;;;;;;4953057;28;20062;-74
2022/06/20 00:16:14;;;;;;;8.35;4.10;;;;;;;;;;4970492;28;20097;-74
2022/06/20 00:18:39;;;;;;;5.07;3.33;;;;;;;;;;4969136;28;20085;-73
2022/06/20 00:21:06;;;;;;;8.57;4.32;;;;;;;;;;4968910;28;20031;-73
2022/06/20 00:23:31;;;;;;;9.82;4.30;;;;;;;;;;4985831;28;20067;-72
2022/06/20 00:25:57;;;;;;;11.65;4.70;;;;;;;;;;4988218;28;20030;-73
2022/06/20 00:28:23;;;;;;;7.90;4.60;;;;;;;;;;4988614;28;20485;-74
2022/06/20 00:30:49;;;;;;;7.53;3.60;;;;;;;;;;4989421;28;20026;-73
2022/06/20 00:33:15;;;;;;;6.50;4.15;;;;;;;;;;4989694;28;20026;-72
2022/06/20 00:35:41;;;;;;;10.25;3.72;;;;;;;;;;4988427;28;20028;-72
2022/06/20 00:38:14;;;;;;;6.05;3.70;;;;;;;;;;4990238;28;20037;-75
2022/06/20 00:40:46;;;;;;;10.20;3.75;;;;;;;;;;4989887;28;20394;-72
2022/06/20 00:43:23;;;;;;;5.95;3.90;;;;;;;;;;4990310;28;20025;-73
2022/06/20 00:45:52;;;;;;;9.43;4.40;;;;;;;;;;4991930;28;20088;-73
2022/06/20 00:48:25;;;;;;;15.75;5.03;;;;;;;;;;4991876;28;20033;-73
2022/06/20 00:50:55;;;;;;;5.50;4.57;;;;;;;;;;4991902;28;20034;-72
2022/06/20 00:53:27;;;;;;;9.55;4.20;;;;;;;;;;4993444;28;20058;-73
2022/06/20 00:55:56;;;;;;;4.78;3.50;;;;;;;;;;4992063;28;20054;-74
2022/06/20 00:58:44;;;;;;;6.72;3.83;;;;;;;;;;4993257;28;20030;-73
2022/06/20 01:01:15;;;;;;;7.07;4.53;;;;;;;;;;4991850;28;20476;-73
2022/06/20 01:03:46;;;;;;;8.07;4.43;;;;;;;;;;4993185;28;20054;-73
2022/06/20 01:06:21;;;;;;;11.68;4.35;;;;;;;;;;4991766;28;20487;-72
2022/06/20 01:08:52;;;;;;;8.75;3.90;;;;;;;;;;4991180;28;20038;-73
2022/06/20 01:11:22;;;;;;;6.93;4.20;;;;;;;;;;4992831;28;20023;-73
2022/06/20 01:13:50;;;;;;;6.00;4.00;;;;;;;;;;4991252;28;20034;-73
2022/06/20 01:16:32;;;;;;;9.80;3.97;;;;;;;;;;4993041;28;20026;-73
2022/06/20 01:19:00;;;;;;;9.88;3.90;;;;;;;;;;4992567;28;20058;-72
2022/06/20 01:21:33;;;;;;;9.35;4.03;;;;;;;;;;4991600;28;20026;-71
2022/06/20 01:24:05;;;;;;;13.15;4.60;;;;;;;;;;4973182;28;20054;-72
2022/06/20 01:26:31;;;;;;;7.32;3.83;;;;;;;;;;4972327;28;20038;-72
2022/06/20 01:29:03;;;;;;;6.18;3.63;;;;;;;;;;4971667;28;20099;-74
2022/06/20 01:31:37;;;;;;;9.75;3.88;;;;;;;;;;4972987;28;20049;-72
2022/06/20 01:34:03;;;;;;;7.00;4.32;;;;;;;;;;4971353;28;20026;-72
2022/06/20 01:39:21;;;;;;;4.45;3.75;;;;;;;;;;4973121;28;20033;-72
2022/06/20 01:44:40;;;;;;;7.55;4.50;;;;;;;;;;4973220;28;20109;-74
2022/06/20 01:47:06;;;;;;;10.70;4.35;;;;;;;;;;4971441;28;20027;-74
2022/06/20 01:49:33;;;;;;;9.95;4.13;;;;;;;;;;4971553;28;20030;-73
2022/06/20 01:52:06;;;;;;;8.93;4.38;;;;;;;;;;4971201;28;20023;-72
2022/06/20 01:54:40;;;;;;;7.95;4.78;;;;;;;;;;4971557;28;20038;-73
2022/06/20 01:57:09;;;;;;;10.82;4.18;;;;;;;;;;4972791;28;20054;-72
2022/06/20 01:59:45;;;;;;;5.50;4.20;;;;;;;;;;4971200;28;20034;-73
2022/06/20 02:02:11;;;;;;;5.32;3.90;;;;;;;;;;4972467;28;20416;-73
2022/06/20 02:04:38;;;;;;;7.53;4.28;;;;;;;;;;4972624;28;20046;-74
2022/06/20 02:07:07;;;;;;;8.55;4.20;;;;;;;;;;4970969;28;20023;-74
2022/06/20 02:09:33;;;;;;;9.40;4.70;;;;;;;;;;4971146;28;20027;-74
2022/06/20 02:12:00;;;;;;;5.05;4.07;;;;;;;;;;4970908;28;20121;-73
2022/06/20 02:14:32;;;;;;;9.30;4.20;;;;;;;;;;4971089;28;20031;-73
2022/06/20 02:17:12;;;;;;;9.25;4.57;;;;;;;;;;4970841;28;20450;-73
2022/06/20 02:19:45;;;;;;;6.38;3.80;;;;;;;;;;4954820;28;20038;-73
2022/06/20 02:22:11;;;;;;;7.65;3.70;;;;;;;;;;4976536;28;20479;-73
2022/06/20 02:24:42;;;;;;;10.95;4.32;;;;;;;;;;4990181;28;20095;-73
2022/06/20 02:27:18;;;;;;;7.60;4.25;;;;;;;;;;4990173;28;20266;-73
2022/06/20 02:29:43;;;;;;;6.80;4.28;;;;;;;;;;4990023;28;20478;-73
2022/06/20 02:32:19;;;;;;;5.13;3.70;;;;;;;;;;4989671;28;20196;-72
2022/06/20 02:34:47;;;;;;;7.00;4.45;;;;;;;;;;4990286;28;20045;-73
2022/06/20 02:37:17;;;;;;;5.40;3.78;;;;;;;;;;4991552;28;20080;-74
2022/06/20 02:39:44;;;;;;;6.68;4.35;;;;;;;;;;4990114;28;20390;-73
2022/06/20 02:42:14;;;;;;;11.07;3.88;;;;;;;;;;4991021;28;20034;-72
2022/06/20 02:44:44;;;;;;;7.80;4.15;;;;;;;;;;4989742;28;20019;-73
2022/06/20 02:47:11;;;;;;;9.93;5.00;;;;;;;;;;4989352;28;20487;-73
2022/06/20 02:49:37;;;;;;;8.02;5.05;;;;;;;;;;4989681;28;20056;-73
2022/06/20 02:52:07;;;;;;;18.48;6.22;;;;;;;;;;4989380;28;20026;-73
2022/06/20 02:54:35;;;;;;;8.60;4.63;;;;;;;;;;4991011;28;20534;-73
2022/06/20 02:57:10;;;;;;;9.40;4.88;;;;;;;;;;4991254;28;20105;-73
2022/06/20 02:59:42;;;;;;;8.27;4.65;;;;;;;;;;4974556;28;20559;-73
2022/06/20 03:02:12;;;;;;;17.20;5.10;;;;;;;;;;4989620;28;20112;-73
2022/06/20 03:04:41;;;;;;;9.25;4.85;;;;;;;;;;4989468;28;20026;-72
2022/06/20 03:07:14;;;;;;;6.60;4.55;;;;;;;;;;4990623;28;20038;-73
2022/06/20 03:09:42;;;;;;;10.73;4.45;;;;;;;;;;4989506;28;20026;-73
2022/06/20 03:12:09;;;;;;;10.07;4.68;;;;;;;;;;4988965;28;20483;-73
2022/06/20 03:14:39;;;;;;;12.07;4.97;;;;;;;;;;4990527;28;20042;-72
2022/06/20 03:17:06;;;;;;;12.00;4.78;;;;;;;;;;4989167;28;20034;-73
2022/06/20 03:19:35;;;;;;;12.02;5.22;;;;;;;;;;4990888;28;20022;-73
2022/06/20 03:22:06;;;;;;;14.45;4.47;;;;;;;;;;4988939;28;20045;-72
2022/06/20 03:24:32;;;;;;;10.52;4.03;;;;;;;;;;4990912;28;20040;-72
2022/06/20 03:27:01;;;;;;;6.38;4.13;;;;;;;;;;4990257;28;20104;-72
2022/06/20 03:29:26;;;;;;;7.95;4.20;;;;;;;;;;4990405;28;20038;-72
2022/06/20 03:31:53;;;;;;;13.32;4.80;;;;;;;;;;4988589;28;20437;-75
2022/06/20 03:34:21;;;;;;;7.53;3.60;;;;;;;;;;4990423;28;20054;-72
2022/06/20 03:36:49;;;;;;;9.55;4.28;;;;;;;;;;4989060;28;20467;-73
2022/06/20 03:39:19;;;;;;;8.00;3.85;;;;;;;;;;4988676;28;20031;-73
2022/06/20 03:41:47;;;;;;;12.80;4.28;;;;;;;;;;4989308;28;20479;-73
2022/06/20 03:44:21;;;;;;;7.28;4.35;;;;;;;;;;4989994;28;20062;-73
2022/06/20 03:47:04;;;;;;;8.73;4.43;;;;;;;;;;4989284;28;20249;-73
2022/06/20 03:49:47;;;;;;;7.03;4.13;;;;;;;;;;4990359;28;20037;-72
2022/06/20 03:52:21;;;;;;;7.72;4.35;;;;;;;;;;4990338;28;20030;-72
2022/06/20 03:55:05;;;;;;;8.80;3.97;;;;;;;;;;4988799;28;20042;-73
2022/06/20 03:57:40;;;;;;;8.45;4.30;;;;;;;;;;4988928;28;20022;-72
2022/06/20 04:00:05;;;;;;;7.60;3.80;;;;;;;;;;4990079;28;20182;-73
2022/06/20 04:02:57;;;;;;;9.20;4.40;;;;;;;;;;4988861;28;20462;-72
2022/06/20 04:05:29;;;;;;;5.72;4.07;;;;;;;;;;4988752;28;20031;-73
2022/06/20 04:08:06;;;;;;;6.40;4.38;;;;;;;;;;4988838;28;20026;-74
2022/06/20 04:10:58;;;;;;;7.85;3.30;;;;;;;;;;4990282;28;20069;-73
2022/06/20 04:13:33;;;;;;;8.13;4.50;;;;;;;;;;4988654;28;20228;-74
2022/06/20 04:16:25;;;;;;;17.20;5.22;;;;;;;;;;4990141;28;20097;-73
2022/06/20 04:18:54;;;;;;;;;;;;;;;;;;4996324;28;20046;-72
2022/06/20 04:21:26;;;;;;;10.15;3.67;;;;;;;;;;5009511;28;19920;-73
2022/06/20 04:24:39;;;;;;;9.30;3.97;;;;;;;;;;4973681;28;20434;-71
2022/06/20 04:27:33;;;;;;;3.75;3.42;;;;;;;;;;4991688;28;20026;-72
2022/06/20 04:30:08;;;;;;;12.00;4.22;;;;;;;;;;4965091;28;20042;-73
2022/06/20 04:32:48;;;;;;;9.82;3.67;;;;;;;;;;4973226;28;20074;-73
2022/06/20 04:35:27;;;;;;;5.68;3.85;;;;;;;;;;4974389;28;20030;-73
2022/06/20 04:37:59;;;;;;;5.45;3.30;;;;;;;;;;4972649;28;20038;-73
2022/06/20 04:40:42;;;;;;;8.27;4.05;;;;;;;;;;4974382;28;20395;-74
2022/06/20 04:43:14;;;;;;;10.80;4.70;;;;;;;;;;4972763;28;20376;-74
2022/06/20 04:46:16;;;;;;;14.15;6.40;;;;;;;;;;4973985;28;20039;-74
2022/06/20 04:48:46;;;;;;;11.35;4.03;;;;;;;;;;4972124;28;20114;-73
2022/06/20 04:51:16;;;;;;;8.95;3.90;;;;;;;;;;4973892;28;20034;-74
2022/06/20 04:53:43;;;;;;;23.40;4.20;;;;;;;;;;4972721;28;20031;-74
2022/06/20 04:56:13;;;;;;;5.55;4.10;;;;;;;;;;4972392;28;20041;-73
2022/06/20 04:58:49;;;;;;;9.40;4.10;;;;;;;;;;4972863;28;20031;-72
2022/06/20 05:01:17;;;;;;;8.48;4.30;;;;;;;;;;4972360;28;20057;-73
2022/06/20 05:03:48;;;;;;;9.93;4.38;;;;;;;;;;4973653;28;20049;-73
2022/06/20 05:06:23;;;;;;;9.20;5.65;;;;;;;;;;4972180;28;20043;-74
2022/06/20 05:08:52;;;;;;;13.68;5.05;;;;;;;;;;4972404;28;20039;-73
2022/06/20 05:11:24;;;;;;;4.65;4.20;;;;;;;;;;4972299;28;20035;-73
2022/06/20 05:14:12;;;;;;;11.30;4.65;;;;;;;;;;4972516;28;20491;-73
2022/06/20 05:16:48;;;;;;;7.93;4.60;;;;;;;;;;4973561;28;20077;-72
2022/06/20 05:19:42;;;;;;;14.88;4.82;;;;;;;;;;4971121;28;20113;-72
2022/06/20 05:22:22;;;;;;;6.97;4.18;;;;;;;;;;4986363;28;20105;-72
2022/06/20 05:24:50;;;;;;;14.05;5.00;;;;;;;;;;4989736;28;20065;-72
2022/06/20 05:27:42;;;;;;;8.38;4.40;;;;;;;;;;4991788;28;20026;-74
2022/06/20 05:30:15;;;;;;;7.40;4.22;;;;;;;;;;4991557;28;20034;-73
2022/06/20 05:32:46;;;;;;;13.45;5.13;;;;;;;;;;4970148;28;20141;-74
2022/06/20 05:35:26;;;;;;;10.35;4.55;;;;;;;;;;4986764;28;20038;-73
2022/06/20 05:38:02;;;;;;;15.27;5.35;;;;;;;;;;4982913;28;20479;-72
2022/06/20 05:40:41;;;;;;;10.13;4.65;;;;;;;;;;4988157;28;20036;-72
2022/06/20 05:43:21;;;;;;;10.90;4.32;;;;;;;;;;4986891;28;20151;-72
2022/06/20 05:45:53;;;;;;;10.18;4.28;;;;;;;;;;4976268;28;20173;-75
2022/06/20 05:48:27;;;;;;;7.80;3.95;;;;;;;;;;4994631;28;20033;-73
2022/06/20 05:50:52;;;;;;;13.25;5.57;;;;;;;;;;4986198;28;20042;-73
2022/06/20 05:53:24;;;;;;;8.75;4.60;;;;;;;;;;4990105;28;20092;-72
2022/06/20 05:55:53;;;;;;;28.55;6.65;;;;;;;;;;4991317;28;20076;-73
2022/06/20 05:58:24;;;;;;;10.90;5.18;;;;;;;;;;4989968;28;20049;-71
2022/06/20 06:00:53;;;;;;;25.08;5.70;;;;;;;;;;4985618;28;20077;-72
2022/06/20 06:03:29;;;;;;;11.00;4.47;;;;;;;;;;4987410;28;20030;-71
2022/06/20 06:06:07;;;;;;;9.48;4.40;;;;;;;;;;4988524;28;20443;-73
2022/06/20 06:08:51;;;;;;;8.48;4.68;;;;;;;;;;4987161;28;20038;-71
2022/06/20 06:11:32;;;;;;;7.13;4.43;;;;;;;;;;4987677;28;20113;-73
2022/06/20 06:14:13;;;;;;;11.90;4.93;;;;;;;;;;4986054;28;20031;-73
2022/06/20 06:16:58;;;;;;;12.13;5.07;;;;;;;;;;4988741;28;20325;-72
2022/06/20 06:19:33;;;;;;;15.73;4.35;;;;;;;;;;4988275;28;20022;-73
2022/06/20 06:22:06;;;;;;;15.18;5.53;;;;;;;;;;4985234;28;20029;-72
2022/06/20 06:24:36;;;;;;;28.20;5.40;;;;;;;;;;4987712;28;20065;-75
2022/06/20 06:27:04;;;;;;;14.48;5.00;;;;;;;;;;4990204;28;20030;-72
2022/06/20 06:30:05;;;;;;;13.05;5.00;;;;;;;;;;4977496;28;20097;-74
2022/06/20 06:32:49;;;;;;;10.88;4.82;;;;;;;;;;4983439;28;20058;-75
2022/06/20 06:35:29;;;;;;;12.00;5.32;;;;;;;;;;4988974;28;20049;-73
2022/06/20 06:38:05;;;;;;;7.07;5.35;;;;;;;;;;4989502;28;20542;-74
2022/06/20 06:40:50;;;;;;;12.73;5.10;;;;;;;;;;4988543;28;20441;-74
2022/06/20 06:43:16;;;;;;;8.05;4.93;;;;;;;;;;4994499;28;20039;-74
2022/06/20 06:45:42;;;;;;;7.70;4.60;;;;;;;;;;4995240;28;20036;-72
2022/06/20 06:48:21;;;;;;;13.27;5.25;;;;;;;;;;5006181;28;20036;-73
2022/06/20 06:50:57;;;;;;;9.40;4.70;;;;;;;;;;4973313;28;20109;-73
2022/06/20 06:53:46;;;;;;;9.85;4.70;;;;;;;;;;4985153;28;20502;-74
2022/06/20 06:56:24;;;;;;;4.65;4.07;;;;;;;;;;4983879;28;20050;-73
2022/06/20 06:58:56;;;;;;;6.95;4.50;;;;;;;;;;5001292;28;20034;-75
2022/06/20 07:01:33;;;;;;;9.68;4.85;;;;;;;;;;4981162;28;20459;-72
2022/06/20 07:04:44;;;;;;;11.40;5.20;;;;;;;;;;4991672;28;20037;-74
2022/06/20 07:07:53;;;;;;;8.70;5.00;;;;;;;;;;4991965;28;20042;-75
2022/06/20 07:10:45;;;;;;;9.55;5.70;;;;;;;;;;4991830;28;20026;-74
2022/06/20 07:13:21;;;;;;;13.35;5.20;;;;;;;;;;4987859;28;20117;-74
2022/06/20 07:15:51;;;;;;;8.73;5.32;;;;;;;;;;4989412;28;20121;-73
2022/06/20 07:18:49;;;;;;;12.10;5.00;;;;;;;;;;5004848;28;20030;-74
2022/06/20 07:21:21;;;;;;;24.05;7.65;;;;;;;;;;4989237;28;20035;-74
2022/06/20 07:23:55;;;;;;;18.33;8.40;;;;;;;;;;4977131;28;20022;-75
2022/06/20 07:26:22;;;;;;;18.00;8.65;;;;;;;;;;4993467;28;20022;-71
2022/06/20 07:29:21;;;;;;;21.17;10.32;;;;;;;;;;4987440;28;20402;-76
2022/06/20 07:32:03;;;;;;;39.58;12.63;;;;;;;;;;4988782;28;20821;-76
2022/06/20 07:34:41;;;;;;;22.55;12.82;;;;;;;;;;4975169;28;20034;-75
2022/06/20 07:37:19;;;;;;;28.17;15.15;;;;;;;;;;4972174;28;20129;-74
2022/06/20 07:39:47;;;;;;;23.98;14.82;;;;;;;;;;4968479;28;20036;-75
2022/06/20 07:42:22;;;;;;;26.80;14.32;;;;;;;;;;4985488;28;20489;-76
2022/06/20 07:45:12;;;;;;;27.92;18.20;;;;;;;;;;4994809;28;20830;-75
2022/06/20 07:47:51;;;;;;;23.35;14.77;;;;;;;;;;5002713;28;20038;-76
2022/06/20 07:50:22;;;;;;;24.13;14.50;;;;;;;;;;4989973;28;20042;-75
2022/06/20 07:53:12;;;;;;;33.45;15.98;;;;;;;;;;4985732;28;20033;-74
2022/06/20 07:55:42;;;;;;;29.92;16.15;;;;;;;;;;4989860;28;20192;-77
2022/06/20 07:58:23;;;;;;;31.27;18.05;;;;;;;;;;4996981;28;20025;-78
2022/06/20 08:00:53;;;;;;;26.70;15.38;;;;;;;;;;4984464;28;20042;-76
2022/06/20 08:03:28;;;;;;;23.25;15.52;;;;;;;;;;5012575;28;20453;-75
2022/06/20 08:06:12;;;;;;;24.75;14.55;;;;;;;;;;4990045;28;20371;-76
2022/06/20 08:08:51;;;;;;;23.10;13.43;;;;;;;;;;4988930;28;20029;-75
2022/06/20 08:11:42;;;;;;;26.33;12.23;;;;;;;;;;4982203;28;20043;-75
2022/06/20 08:14:47;;;;;;;17.23;11.80;;;;;;;;;;5002960;28;20029;-76
2022/06/20 08:17:13;;;;;;;20.08;11.70;;;;;;;;;;4980061;28;20763;-75
2022/06/20 08:19:42;;;;;;;23.58;13.27;;;;;;;;;;4985028;28;20113;-76
2022/06/20 08:22:15;;;;;;;25.90;12.88;;;;;;;;;;4971247;28;20030;-75
2022/06/20 08:24:49;;;;;;;21.58;11.70;;;;;;;;;;4983212;28;20513;-74
2022/06/20 08:27:23;;;;;;;24.23;12.20;;;;;;;;;;4996763;28;20030;-75
2022/06/20 08:30:06;;;;;;;22.35;11.00;;;;;;;;;;4990062;28;20374;-75
2022/06/20 08:32:42;;;;;;;26.10;10.80;;;;;;;;;;4984214;28;20054;-74
2022/06/20 08:35:16;;;;;;;20.00;9.90;;;;;;;;;;4987930;28;20140;-74
2022/06/20 08:37:54;;;;;;;16.17;9.82;;;;;;;;;;5000830;28;20038;-76
2022/06/20 08:40:36;;;;;;;20.45;10.93;;;;;;;;;;4984709;28;20038;-73
2022/06/20 08:43:15;;;;;;;14.88;10.23;;;;;;;;;;4986607;28;20029;-76
2022/06/20 08:45:58;;;;;;;21.50;10.55;;;;;;;;;;4988180;28;20030;-74
2022/06/20 08:48:23;;;;;;;13.25;9.45;;;;;;;;;;4986563;28;20038;-76
2022/06/20 08:51:06;;;;;;;15.25;9.80;;;;;;;;;;5006341;28;20033;-75
2022/06/20 08:54:28;;;;;;;19.50;11.40;;;;;;;;;;4985560;28;20030;-76
2022/06/20 08:57:16;;;;;;;17.48;11.02;;;;;;;;;;4987581;28;20154;-74
2022/06/20 09:00:04;;;;;;;15.43;10.88;;;;;;;;;;5006798;28;20053;-76
2022/06/20 09:03:08;;;;;;;20.77;10.00;;;;;;;;;;4987088;28;20037;-74
2022/06/20 09:05:50;;;;;;;20.13;11.50;;;;;;;;;;5008475;28;20111;-74
2022/06/20 09:08:43;;;;;;;16.77;10.80;;;;;;;;;;4992179;28;20034;-76
2022/06/20 09:11:27;;;;;;;17.27;10.75;;;;;;;;;;4991191;28;20049;-75
2022/06/20 09:14:28;;;;;;;23.27;11.23;;;;;;;;;;4997047;28;20057;-74
2022/06/20 09:17:23;;;;;;;18.48;11.35;;;;;;;;;;5004226;28;20059;-75
2022/06/20 09:20:15;;;;;;;17.63;10.00;;;;;;;;;;4991459;28;20082;-75
2022/06/20 09:23:06;;;;;;;22.00;11.38;;;;;;;;;;4982753;28;20117;-76
2022/06/20 09:26:00;;;;;;;15.32;11.30;;;;;;;;;;4986505;28;20091;-74
2022/06/20 09:28:47;;;;;;;15.18;11.15;;;;;;;;;;5008752;28;20017;-74
2022/06/20 09:31:15;;;;;;;17.05;12.05;;;;;;;;;;4997053;28;20145;-75
2022/06/20 09:34:11;;;;;;;24.60;11.75;;;;;;;;;;4986156;28;20026;-75
2022/06/20 09:37:07;;;;;;;17.10;11.73;;;;;;;;;;5000431;28;20459;-75
2022/06/20 09:39:56;;;;;;;21.33;12.13;;;;;;;;;;4991729;28;20030;-74
2022/06/20 09:42:44;;;;;;;28.98;13.32;;;;;;;;;;4992033;28;20125;-76
2022/06/20 09:45:19;;;;;;;23.95;13.40;;;;;;;;;;4986347;28;20046;-75
2022/06/20 09:47:58;;;;;;;17.13;13.15;;;;;;;;;;4991267;28;20026;-77
2022/06/20 09:50:24;;;;;;;17.63;13.43;;;;;;;;;;4987004;28;20533;-75
2022/06/20 09:52:52;;;;;;;23.88;13.63;;;;;;;;;;4986519;28;20034;-75
2022/06/20 09:55:55;;;;;;;22.02;13.50;;;;;;;;;;5004451;28;20584;-75
2022/06/20 09:58:43;;;;;;;22.23;13.30;;;;;;;;;;4989889;28;20101;-75
2022/06/20 10:01:48;;;;;;;26.92;12.95;;;;;;;;;;4996137;28;20442;-76
2022/06/20 10:04:34;;;;;;;31.23;14.75;;;;;;;;;;5006674;28;20026;-75
2022/06/20 10:07:13;;;;;;;21.35;14.48;;;;;;;;;;4991746;28;20030;-75
2022/06/20 10:09:53;;;;;;;23.05;13.63;;;;;;;;;;4990814;28;20421;-78
2022/06/20 10:12:48;;;;;;;21.73;14.05;;;;;;;;;;4987104;28;20486;-76
2022/06/20 10:15:25;;;;;;;25.23;14.20;;;;;;;;;;4990958;28;20100;-76
2022/06/20 10:18:13;;;;;;;21.67;14.48;;;;;;;;;;5004389;28;20041;-77
2022/06/20 10:20:54;;;;;;;26.48;14.13;;;;;;;;;;4996491;28;20022;-77
2022/06/20 10:23:59;;;;;;;21.40;14.82;;;;;;;;;;4999446;28;20033;-75
2022/06/20 10:26:43;;;;;;;21.58;15.02;;;;;;;;;;5002559;28;20554;-75
2022/06/20 10:29:20;;;;;;;19.83;14.82;;;;;;;;;;5003311;28;20116;-74
2022/06/20 10:31:52;;;;;;;20.42;14.10;;;;;;;;;;4984231;28;20125;-76
2022/06/20 10:34:44;;;;;;;22.65;14.25;;;;;;;;;;5008170;28;20152;-77
2022/06/20 10:37:25;;;;;;;21.25;13.70;;;;;;;;;;4980463;28;20046;-74
2022/06/20 10:39:59;;;;;;;21.85;14.25;;;;;;;;;;4997430;28;20513;-76
2022/06/20 10:42:50;;;;;;;26.75;13.20;;;;;;;;;;4976318;28;20144;-76
2022/06/20 10:45:38;;;;;;;21.05;14.20;;;;;;;;;;4997532;28;20045;-75
2022/06/20 10:48:13;;;;;;;26.33;13.80;;;;;;;;;;4995441;28;20030;-75
2022/06/20 10:50:41;;;;;;;24.73;14.93;;;;;;;;;;4988274;28;20463;-76
2022/06/20 10:53:42;;;;;;;22.08;13.43;;;;;;;;;;4995354;28;20521;-74
2022/06/20 10:56:11;;;;;;;22.35;13.45;;;;;;;;;;5014517;28;20478;-75
2022/06/20 10:59:00;;;;;;;28.63;13.02;;;;;;;;;;4991614;28;20040;-75
2022/06/20 11:01:57;;;;;;;19.95;13.48;;;;;;;;;;4996461;28;20026;-76
2022/06/20 11:05:06;;;;;;;23.10;13.43;;;;;;;;;;4991111;28;20022;-73
2022/06/20 11:07:59;;;;;;;33.25;12.90;;;;;;;;;;4985389;28;20030;-75
2022/06/20 11:10:57;;;;;;;19.30;13.27;;;;;;;;;;4985761;28;20454;-75
2022/06/20 11:13:38;;;;;;;20.73;14.05;;;;;;;;;;4978728;28;20660;-75
2022/06/20 11:16:45;;;;;;;23.05;14.85;;;;;;;;;;4984876;28;20088;-75
2022/06/20 11:19:51;;;;;;;27.25;14.40;;;;;;;;;;4982056;28;20030;-76
2022/06/20 11:22:41;;;;;;;28.65;14.00;;;;;;;;;;4972030;28;20042;-77
2022/06/20 11:25:12;;;;;;;21.83;14.30;;;;;;;;;;4981996;28;20457;-74
2022/06/20 11:27:59;;;;;;;29.67;15.38;;;;;;;;;;4982698;28;20074;-73
2022/06/20 11:30:48;;;;;;;23.95;14.65;;;;;;;;;;4992190;28;20026;-74
2022/06/20 11:36:24;;;;;;;28.65;16.65;;;;;;;;;;4974975;28;20061;-76
2022/06/20 11:39:18;;;;;;;23.98;15.57;;;;;;;;;;4981217;28;20421;-76
2022/06/20 11:41:54;;;;;;;21.55;15.85;;;;;;;;;;4978431;28;20394;-76
2022/06/20 11:44:56;;;;;;;27.08;17.42;;;;;;;;;;4983534;28;20173;-74
2022/06/20 11:47:44;;;;;;;27.55;15.45;;;;;;;;;;4980835;28;20034;-75
2022/06/20 11:50:30;;;;;;;25.65;16.08;;;;;;;;;;4978771;28;20120;-74
2022/06/20 11:53:59;;;;;;;31.60;17.77;;;;;;;;;;4987759;28;20403;-75
2022/06/20 11:56:46;;;;;;;29.15;16.52;;;;;;;;;;4965760;28;20033;-74
2022/06/20 11:59:14;;;;;;;24.13;15.88;;;;;;;;;;4983393;28;20045;-77
2022/06/20 12:02:07;;;;;;;26.75;16.63;;;;;;;;;;4993526;28;20192;-76
2022/06/20 12:04:48;;;;;;;28.92;16.48;;;;;;;;;;4999226;28;20041;-78
2022/06/20 12:07:41;;;;;;;27.30;15.75;;;;;;;;;;4981892;28;20034;-76
2022/06/20 12:10:18;;;;;;;29.33;16.55;;;;;;;;;;4980863;28;20490;-77
2022/06/20 12:13:00;;;;;;;23.50;13.80;;;;;;;;;;4982576;28;20378;-76
2022/06/20 12:15:45;;;;;;;20.25;13.38;;;;;;;;;;4985440;28;20097;-78
2022/06/20 12:18:33;;;;;;;19.40;9.57;;;;;;;;;;4994895;28;20038;-76
2022/06/20 12:23:53;;;;;;;15.63;5.10;;;;;;;;;;4992509;28;20092;-76
2022/06/20 12:26:29;;;;;;;13.75;4.43;;;;;;;;;;4991002;28;20044;-77
2022/06/20 12:29:18;;;;;;;16.67;4.72;;;;;;;;;;4982710;28;20037;-78
2022/06/20 12:31:48;;;;;;;10.75;4.78;;;;;;;;;;5001521;28;20052;-76
2022/06/20 12:34:26;;;;;;;10.95;4.60;;;;;;;;;;5001396;28;20150;-75
2022/06/20 12:37:01;;;;;;;10.23;4.28;;;;;;;;;;4993187;28;20033;-74
2022/06/20 12:39:34;;;;;;;18.75;5.03;;;;;;;;;;4990670;28;20066;-78
2022/06/20 12:42:16;;;;;;;9.35;4.95;;;;;;;;;;4984396;28;20169;-77
2022/06/20 12:45:19;;;;;;;8.32;4.38;;;;;;;;;;4985415;28;20030;-75
2022/06/20 12:48:14;;;;;;;11.35;4.60;;;;;;;;;;4985166;28;20061;-75
2022/06/20 12:51:01;;;;;;;12.18;4.45;;;;;;;;;;4982949;28;20402;-76
2022/06/20 12:53:47;;;;;;;8.05;4.47;;;;;;;;;;4980999;28;21139;-76
2022/06/20 12:56:13;;;;;;;6.13;4.22;;;;;;;;;;4989047;28;20038;-77
2022/06/20 12:59:35;;;;;;;17.98;5.55;;;;;;;;;;4986791;28;20034;-76
2022/06/20 13:02:15;;;;;;;8.13;4.45;;;;;;;;;;5004966;28;20029;-75
2022/06/20 13:04:47;;;;;;;8.75;4.68;;;;;;;;;;5003026;28;20046;-75
2022/06/20 13:07:51;;;;;;;10.10;5.00;;;;;;;;;;4981560;28;20046;-77
2022/06/20 13:10:54;;;;;;;13.90;6.75;;;;;;;;;;4982003;28;20366;-76
2022/06/20 13:13:56;;;;;;;14.63;7.50;;;;;;;;;;4983263;28;20053;-75
2022/06/20 13:16:59;;;;;;;17.40;8.50;;;;;;;;;;4987273;28;20092;-77
2022/06/20 13:20:17;;;;;;;17.50;9.18;;;;;;;;;;5004093;28;20034;-77
2022/06/20 13:23:11;;;;;;;16.65;9.73;;;;;;;;;;5057748;23;20050;-82
2022/06/20 13:26:17;;;;;;;24.42;10.05;;;;;;;;;;5003363;28;20494;-80
2022/06/20 13:29:09;;;;;;;21.38;12.07;;;;;;;;;;5007159;28;20045;-84
2022/06/20 13:31:42;;;;;;;17.08;12.38;;;;;;;;;;5019021;28;20095;-82
2022/06/20 13:34:32;;;;;;;18.05;11.95;;;;;;;;;;5019773;28;20033;-81
2022/06/20 13:37:17;;;;;;;18.75;12.18;;;;;;;;;;5009097;28;20184;-84
2022/06/20 13:39:57;;;;;;;21.15;13.25;;;;;;;;;;5009101;28;20453;-81
2022/06/20 13:43:04;;;;;;;31.05;15.50;;;;;;;;;;5007839;28;20108;-84
2022/06/20 13:45:46;;;;;;;36.65;17.65;;;;;;;;;;4992261;28;20030;-82
2022/06/20 13:48:25;;;;;;;22.77;15.80;;;;;;;;;;5012080;28;20127;-84
2022/06/20 13:51:18;;;;;;;25.45;16.08;;;;;;;;;;5013364;28;20022;-84
2022/06/20 13:54:10;;;;;;;31.27;19.65;;;;;;;;;;5019272;28;20037;-83
2022/06/20 13:56:51;;;;;;;25.70;16.13;;;;;;;;;;5016390;28;20038;-83
2022/06/20 13:59:24;;;;;;;27.58;17.33;;;;;;;;;;5017085;28;20343;-83
2022/06/20 14:02:04;;;;;;;30.25;16.92;;;;;;;;;;5011106;28;20494;-84
2022/06/20 14:04:32;;;;;;;26.52;17.40;;;;;;;;;;5013635;28;20054;-83
2022/06/20 14:07:01;;;;;;;33.25;18.63;;;;;;;;;;5014600;28;20027;-84
2022/06/20 14:09:35;;;;;;;29.08;18.42;;;;;;;;;;5013395;28;21716;-87
2022/06/20 14:12:07;;;;;;;46.22;23.75;;;;;;;;;;5009933;28;20028;-86
2022/06/20 14:14:47;;;;;;;41.00;26.27;;;;;;;;;;4987131;28;20065;-87
2022/06/20 14:17:12;;;;;;;44.17;25.52;;;;;;;;;;5007481;28;20021;-87
2022/06/20 14:19:45;;;;;;;42.38;26.35;;;;;;;;;;5022697;28;20492;-88
2022/06/20 14:22:33;;;;;;;35.00;25.48;;;;;;;;;;5027722;28;20126;-86
2022/06/20 14:25:19;;;;;;;46.90;26.73;;;;;;;;;;5043958;28;20383;-87
2022/06/20 14:27:48;;;;;;;37.67;27.70;;;;;;;;;;5025970;28;20098;-88
2022/06/20 14:30:28;;;;;;;49.53;30.98;;;;;;;;;;5028699;28;20478;-88
2022/06/20 14:33:00;;;;;;;45.42;29.10;;;;;;;;;;5042418;28;20025;-87
2022/06/20 14:35:55;;;;;;;29.40;19.60;;;;;;;;;;5038889;28;20033;-87
2022/06/20 14:38:23;;;;;;;28.38;17.33;;;;;;;;;;5012023;28;20030;-88
2022/06/20 14:40:55;;;;;;;28.38;15.98;;;;;;;;;;5035132;28;20025;-85
2022/06/20 14:43:44;;;;;;;19.88;13.07;;;;;;;;;;5043885;28;20017;-87
2022/06/20 14:46:22;;;;;;;25.30;12.52;;;;;;;;;;5025423;28;20026;-89
2022/06/20 14:49:23;;;;;;;20.88;12.80;;;;;;;;;;5033846;28;20444;-86
2022/06/20 14:51:57;;;;;;;19.67;12.90;;;;;;;;;;5028440;28;20065;-87
2022/06/20 14:54:44;;;;;;;21.60;12.90;;;;;;;;;;5022147;28;20040;-88
2022/06/20 14:57:20;;;;;;;17.55;10.90;;;;;;;;;;5005798;28;20080;-86
2022/06/20 14:59:54;;;;;;;17.73;11.73;;;;;;;;;;5040245;28;20032;-87
2022/06/20 15:02:50;;;;;;;19.23;11.60;;;;;;;;;;5042263;28;20406;-88
2022/06/20 15:05:47;;;;;;;19.40;10.93;;;;;;;;;;5004626;28;20042;-87
2022/06/20 15:08:26;;;;;;;19.63;10.27;;;;;;;;;;5013537;28;20013;-86
2022/06/20 15:11:06;;;;;;;20.48;10.63;;;;;;;;;;5028500;28;20040;-88
2022/06/20 15:13:57;;;;;;;15.95;10.32;;;;;;;;;;5023476;28;20074;-88
2022/06/20 15:16:31;;;;;;;22.48;9.70;;;;;;;;;;5004960;28;20037;-85
2022/06/20 15:19:38;;;;;;;14.50;8.95;;;;;;;;;;5019940;28;20055;-86
2022/06/20 15:22:23;;;;;;;13.57;9.20;;;;;;;;;;5045783;28;20041;-87
2022/06/20 15:25:18;;;;;;;12.60;7.90;;;;;;;;;;5025290;28;20039;-89
2022/06/20 15:28:01;;;;;;;11.30;8.13;;;;;;;;;;5035518;28;20030;-88
2022/06/20 15:30:36;;;;;;;14.60;7.63;;;;;;;;;;5012997;28;20034;-87
2022/06/20 15:33:36;;;;;;;13.60;6.97;;;;;;;;;;5021149;28;20026;-90
2022/06/20 15:36:14;;;;;;;9.68;5.68;;;;;;;;;;5031685;28;20021;-87
2022/06/20 15:38:59;;;;;;;9.20;5.35;;;;;;;;;;5028139;28;20055;-87
2022/06/20 15:44:24;;;;;;;6.47;4.00;;;;;;;;;;5038601;28;20030;-89
2022/06/20 15:47:15;;;;;;;5.88;4.28;;;;;;;;;;5020776;28;20034;-87
2022/06/20 15:50:11;;;;;;;4.20;2.88;;;;;;;;;;5039726;28;20021;-87
2022/06/20 15:53:05;;;;;;;3.60;2.67;;;;;;;;;;5032855;28;20056;-88
2022/06/20 15:56:04;;;;;;;4.68;2.80;;;;;;;;;;5007411;28;20045;-88